sensor_id;sensor_type;location;lat;lon;timestamp;P1;durP1;ratioP1;P2;durP2;ratioP2
6951;SDS011;3515;50.138;8.502;2022-10-31T00:00:18;8;;;0;;
6951;SDS011;3515;50.138;8.502;2022-10-31T00:02:43;8;;;0;;
6951;SDS011;3515;50.138;8.502;2022-10-31T00:05:08;9;;;0;;
6951;SDS011;3515;50.138;8.502;2022-10-31T00:07:34;10;;;1;;
6951;SDS011;3515;50.138;8.502;2022-10-31T00:10:06;12;;;1;;
6951;SDS011;3515;50.138;8.502;2022-10-31T00:12:29;13;;;1;;
6951;SDS011;3515;50.138;8.502;2022-10-31T00:14:55;13;;;1;;
6951;SDS011;3515;50.138;8.502;2022-10-31T00:17:20;13;;;1;;
6951;SDS011;3515;50.138;8.502;2022-10-31T00:19:45;13;;;1;;
6951;SDS011;3515;50.138;8.502;2022-10-31T00:22:11;11;;;1;;
6951;SDS011;3515;50.138;8.502;2022-10-31T00:24:36;10;;;1;;
6951;SDS011;3515;50.138;8.502;2022-10-31T00:27:01;8;;;1;;
6951;SDS011;3515;50.138;8.502;2022-10-31T00:29:27;6;;;0;;
6951;SDS011;3515;50.138;8.502;2022-10-31T00:31:52;6;;;0;;
6951;SDS011;3515;50.138;8.502;2022-10-31T00:34:18;6;;;0;;
6951;SDS011;3515;50.138;8.502;2022-10-31T00:36:43;5;;;0;;
6951;SDS011;3515;50.138;8.502;2022-10-31T00:39:08;5;;;0;;
6951;SDS011;3515;50.138;8.502;2022-10-31T00:41:33;5;;;0;;
6951;SDS011;3515;50.138;8.502;2022-10-31T00:43:59;6;;;0;;
6951;SDS011;3515;50.138;8.502;2022-10-31T00:46:24;6;;;0;;
6951;SDS011;3515;50.138;8.502;2022-10-31T00:48:49;6;;;0;;
6951;SDS011;3515;50.138;8.502;2022-10-31T00:51:15;5;;;0;;
6951;SDS011;3515;50.138;8.502;2022-10-31T00:53:40;6;;;0;;
6951;SDS011;3515;50.138;8.502;2022-10-31T00:56:06;6;;;0;;
6951;SDS011;3515;50.138;8.502;2022-10-31T00:58:31;5;;;0;;
6951;SDS011;3515;50.138;8.502;2022-10-31T01:00:56;5;;;0;;
6951;SDS011;3515;50.138;8.502;2022-10-31T01:03:22;6;;;0;;
6951;SDS011;3515;50.138;8.502;2022-10-31T01:05:56;6;;;0;;
6951;SDS011;3515;50.138;8.502;2022-10-31T01:08:13;6;;;0;;
6951;SDS011;3515;50.138;8.502;2022-10-31T01:10:38;6;;;0;;
6951;SDS011;3515;50.138;8.502;2022-10-31T01:13:03;5;;;0;;
6951;SDS011;3515;50.138;8.502;2022-10-31T01:15:29;5;;;0;;
6951;SDS011;3515;50.138;8.502;2022-10-31T01:17:54;5;;;0;;
6951;SDS011;3515;50.138;8.502;2022-10-31T01:20:19;5;;;0;;
6951;SDS011;3515;50.138;8.502;2022-10-31T01:22:45;4;;;0;;
6951;SDS011;3515;50.138;8.502;2022-10-31T01:25:10;4;;;0;;
6951;SDS011;3515;50.138;8.502;2022-10-31T01:27:35;4;;;0;;
6951;SDS011;3515;50.138;8.502;2022-10-31T01:30:01;4;;;0;;
6951;SDS011;3515;50.138;8.502;2022-10-31T01:32:26;4;;;0;;
6951;SDS011;3515;50.138;8.502;2022-10-31T01:34:51;4;;;0;;
6951;SDS011;3515;50.138;8.502;2022-10-31T01:37:17;4;;;0;;
6951;SDS011;3515;50.138;8.502;2022-10-31T01:39:42;5;;;0;;
6951;SDS011;3515;50.138;8.502;2022-10-31T01:42:09;5;;;0;;
6951;SDS011;3515;50.138;8.502;2022-10-31T01:46:58;6;;;0;;
6951;SDS011;3515;50.138;8.502;2022-10-31T01:49:24;7;;;0;;
6951;SDS011;3515;50.138;8.502;2022-10-31T01:51:49;6;;;0;;
6951;SDS011;3515;50.138;8.502;2022-10-31T01:54:15;6;;;0;;
6951;SDS011;3515;50.138;8.502;2022-10-31T01:56:40;6;;;0;;
6951;SDS011;3515;50.138;8.502;2022-10-31T01:59:05;6;;;0;;
6951;SDS011;3515;50.138;8.502;2022-10-31T02:01:30;6;;;0;;
6951;SDS011;3515;50.138;8.502;2022-10-31T02:03:55;6;;;0;;
6951;SDS011;3515;50.138;8.502;2022-10-31T02:06:24;5;;;0;;
6951;SDS011;3515;50.138;8.502;2022-10-31T02:08:46;5;;;0;;
6951;SDS011;3515;50.138;8.502;2022-10-31T02:11:11;6;;;0;;
6951;SDS011;3515;50.138;8.502;2022-10-31T02:13:37;6;;;0;;
6951;SDS011;3515;50.138;8.502;2022-10-31T02:16:02;5;;;0;;
6951;SDS011;3515;50.138;8.502;2022-10-31T02:18:28;5;;;0;;
6951;SDS011;3515;50.138;8.502;2022-10-31T02:20:56;5;;;0;;
6951;SDS011;3515;50.138;8.502;2022-10-31T02:23:26;5;;;0;;
6951;SDS011;3515;50.138;8.502;2022-10-31T02:25:56;5;;;0;;
6951;SDS011;3515;50.138;8.502;2022-10-31T02:28:21;6;;;0;;
6951;SDS011;3515;50.138;8.502;2022-10-31T02:30:36;5;;;0;;
6951;SDS011;3515;50.138;8.502;2022-10-31T02:33:07;5;;;0;;
6951;SDS011;3515;50.138;8.502;2022-10-31T02:35:28;6;;;0;;
6951;SDS011;3515;50.138;8.502;2022-10-31T02:37:51;5;;;0;;
6951;SDS011;3515;50.138;8.502;2022-10-31T02:40:17;5;;;0;;
6951;SDS011;3515;50.138;8.502;2022-10-31T02:42:44;5;;;0;;
6951;SDS011;3515;50.138;8.502;2022-10-31T02:45:07;5;;;0;;
6951;SDS011;3515;50.138;8.502;2022-10-31T02:47:32;4;;;0;;
6951;SDS011;3515;50.138;8.502;2022-10-31T02:49:57;5;;;0;;
6951;SDS011;3515;50.138;8.502;2022-10-31T02:52:23;5;;;0;;
6951;SDS011;3515;50.138;8.502;2022-10-31T02:54:48;4;;;0;;
6951;SDS011;3515;50.138;8.502;2022-10-31T02:57:13;5;;;0;;
6951;SDS011;3515;50.138;8.502;2022-10-31T02:59:39;5;;;0;;
6951;SDS011;3515;50.138;8.502;2022-10-31T03:02:15;5;;;0;;
6951;SDS011;3515;50.138;8.502;2022-10-31T03:04:42;5;;;0;;
6951;SDS011;3515;50.138;8.502;2022-10-31T03:07:01;4;;;0;;
6951;SDS011;3515;50.138;8.502;2022-10-31T03:09:26;5;;;0;;
6951;SDS011;3515;50.138;8.502;2022-10-31T03:11:53;5;;;0;;
6951;SDS011;3515;50.138;8.502;2022-10-31T03:14:17;5;;;0;;
6951;SDS011;3515;50.138;8.502;2022-10-31T03:16:43;5;;;0;;
6951;SDS011;3515;50.138;8.502;2022-10-31T03:19:06;5;;;0;;
6951;SDS011;3515;50.138;8.502;2022-10-31T03:21:32;4;;;0;;
6951;SDS011;3515;50.138;8.502;2022-10-31T03:23:56;4;;;0;;
6951;SDS011;3515;50.138;8.502;2022-10-31T03:26:22;4;;;0;;
6951;SDS011;3515;50.138;8.502;2022-10-31T03:28:48;4;;;0;;
6951;SDS011;3515;50.138;8.502;2022-10-31T03:31:13;4;;;0;;
6951;SDS011;3515;50.138;8.502;2022-10-31T03:33:38;3;;;0;;
6951;SDS011;3515;50.138;8.502;2022-10-31T03:36:04;3;;;0;;
6951;SDS011;3515;50.138;8.502;2022-10-31T03:38:29;3;;;0;;
6951;SDS011;3515;50.138;8.502;2022-10-31T03:40:54;4;;;0;;
6951;SDS011;3515;50.138;8.502;2022-10-31T03:43:21;4;;;0;;
6951;SDS011;3515;50.138;8.502;2022-10-31T03:45:45;4;;;0;;
6951;SDS011;3515;50.138;8.502;2022-10-31T03:48:10;4;;;0;;
6951;SDS011;3515;50.138;8.502;2022-10-31T03:50:36;4;;;0;;
6951;SDS011;3515;50.138;8.502;2022-10-31T03:53:01;4;;;0;;
6951;SDS011;3515;50.138;8.502;2022-10-31T03:55:26;4;;;0;;
6951;SDS011;3515;50.138;8.502;2022-10-31T03:57:52;4;;;0;;
6951;SDS011;3515;50.138;8.502;2022-10-31T04:00:16;5;;;0;;
6951;SDS011;3515;50.138;8.502;2022-10-31T04:02:49;5;;;0;;
6951;SDS011;3515;50.138;8.502;2022-10-31T04:05:07;5;;;0;;
6951;SDS011;3515;50.138;8.502;2022-10-31T04:07:34;5;;;0;;
6951;SDS011;3515;50.138;8.502;2022-10-31T04:09:58;5;;;0;;
6951;SDS011;3515;50.138;8.502;2022-10-31T04:12:23;6;;;0;;
6951;SDS011;3515;50.138;8.502;2022-10-31T04:14:48;6;;;0;;
6951;SDS011;3515;50.138;8.502;2022-10-31T04:17:15;6;;;0;;
6951;SDS011;3515;50.138;8.502;2022-10-31T04:19:39;5;;;0;;
6951;SDS011;3515;50.138;8.502;2022-10-31T04:22:04;4;;;0;;
6951;SDS011;3515;50.138;8.502;2022-10-31T04:24:30;4;;;0;;
6951;SDS011;3515;50.138;8.502;2022-10-31T04:26:55;4;;;0;;
6951;SDS011;3515;50.138;8.502;2022-10-31T04:29:20;3;;;0;;
6951;SDS011;3515;50.138;8.502;2022-10-31T04:31:46;3;;;0;;
6951;SDS011;3515;50.138;8.502;2022-10-31T04:34:11;3;;;0;;
6951;SDS011;3515;50.138;8.502;2022-10-31T04:36:36;3;;;0;;
6951;SDS011;3515;50.138;8.502;2022-10-31T04:39:01;4;;;0;;
6951;SDS011;3515;50.138;8.502;2022-10-31T04:41:27;4;;;0;;
6951;SDS011;3515;50.138;8.502;2022-10-31T04:43:52;4;;;0;;
6951;SDS011;3515;50.138;8.502;2022-10-31T04:46:17;4;;;0;;
6951;SDS011;3515;50.138;8.502;2022-10-31T04:48:43;4;;;0;;
6951;SDS011;3515;50.138;8.502;2022-10-31T04:51:08;4;;;0;;
6951;SDS011;3515;50.138;8.502;2022-10-31T04:53:33;4;;;0;;
6951;SDS011;3515;50.138;8.502;2022-10-31T04:55:59;4;;;0;;
6951;SDS011;3515;50.138;8.502;2022-10-31T04:58:24;4;;;0;;
6951;SDS011;3515;50.138;8.502;2022-10-31T05:00:51;4;;;0;;
6951;SDS011;3515;50.138;8.502;2022-10-31T05:03:15;4;;;0;;
6951;SDS011;3515;50.138;8.502;2022-10-31T05:05:41;4;;;0;;
6951;SDS011;3515;50.138;8.502;2022-10-31T05:08:05;4;;;0;;
6951;SDS011;3515;50.138;8.502;2022-10-31T05:10:31;4;;;0;;
6951;SDS011;3515;50.138;8.502;2022-10-31T05:12:57;5;;;0;;
6951;SDS011;3515;50.138;8.502;2022-10-31T05:15:22;5;;;0;;
6951;SDS011;3515;50.138;8.502;2022-10-31T05:17:47;5;;;0;;
6951;SDS011;3515;50.138;8.502;2022-10-31T05:20:20;4;;;0;;
6951;SDS011;3515;50.138;8.502;2022-10-31T05:22:43;5;;;0;;
6951;SDS011;3515;50.138;8.502;2022-10-31T05:25:08;5;;;0;;
6951;SDS011;3515;50.138;8.502;2022-10-31T05:27:33;6;;;0;;
6951;SDS011;3515;50.138;8.502;2022-10-31T05:29:59;6;;;0;;
6951;SDS011;3515;50.138;8.502;2022-10-31T05:32:24;5;;;0;;
6951;SDS011;3515;50.138;8.502;2022-10-31T05:34:49;6;;;0;;
6951;SDS011;3515;50.138;8.502;2022-10-31T05:37:14;5;;;0;;
6951;SDS011;3515;50.138;8.502;2022-10-31T05:39:40;6;;;0;;
6951;SDS011;3515;50.138;8.502;2022-10-31T05:42:05;6;;;0;;
6951;SDS011;3515;50.138;8.502;2022-10-31T05:44:31;6;;;0;;
6951;SDS011;3515;50.138;8.502;2022-10-31T05:46:56;5;;;0;;
6951;SDS011;3515;50.138;8.502;2022-10-31T05:49:21;5;;;0;;
6951;SDS011;3515;50.138;8.502;2022-10-31T05:51:46;5;;;0;;
6951;SDS011;3515;50.138;8.502;2022-10-31T05:54:12;5;;;0;;
6951;SDS011;3515;50.138;8.502;2022-10-31T05:56:37;5;;;0;;
6951;SDS011;3515;50.138;8.502;2022-10-31T05:59:02;5;;;0;;
6951;SDS011;3515;50.138;8.502;2022-10-31T06:01:28;4;;;0;;
6951;SDS011;3515;50.138;8.502;2022-10-31T06:03:53;4;;;0;;
6951;SDS011;3515;50.138;8.502;2022-10-31T06:06:18;5;;;0;;
6951;SDS011;3515;50.138;8.502;2022-10-31T06:08:44;5;;;0;;
6951;SDS011;3515;50.138;8.502;2022-10-31T06:11:09;5;;;0;;
6951;SDS011;3515;50.138;8.502;2022-10-31T06:13:34;6;;;0;;
6951;SDS011;3515;50.138;8.502;2022-10-31T06:16:00;6;;;0;;
6951;SDS011;3515;50.138;8.502;2022-10-31T06:18:25;6;;;0;;
6951;SDS011;3515;50.138;8.502;2022-10-31T06:20:51;5;;;0;;
6951;SDS011;3515;50.138;8.502;2022-10-31T06:23:16;5;;;0;;
6951;SDS011;3515;50.138;8.502;2022-10-31T06:25:41;4;;;0;;
6951;SDS011;3515;50.138;8.502;2022-10-31T06:28:07;4;;;0;;
6951;SDS011;3515;50.138;8.502;2022-10-31T06:30:32;4;;;0;;
6951;SDS011;3515;50.138;8.502;2022-10-31T06:33:01;4;;;0;;
6951;SDS011;3515;50.138;8.502;2022-10-31T06:35:22;4;;;0;;
6951;SDS011;3515;50.138;8.502;2022-10-31T06:37:51;5;;;0;;
6951;SDS011;3515;50.138;8.502;2022-10-31T06:40:13;5;;;0;;
6951;SDS011;3515;50.138;8.502;2022-10-31T06:42:38;5;;;0;;
6951;SDS011;3515;50.138;8.502;2022-10-31T06:45:04;5;;;0;;
6951;SDS011;3515;50.138;8.502;2022-10-31T06:47:29;5;;;0;;
6951;SDS011;3515;50.138;8.502;2022-10-31T06:49:54;5;;;0;;
6951;SDS011;3515;50.138;8.502;2022-10-31T06:52:20;4;;;0;;
6951;SDS011;3515;50.138;8.502;2022-10-31T06:54:45;4;;;0;;
6951;SDS011;3515;50.138;8.502;2022-10-31T06:57:10;4;;;0;;
6951;SDS011;3515;50.138;8.502;2022-10-31T06:59:35;4;;;0;;
6951;SDS011;3515;50.138;8.502;2022-10-31T07:02:01;4;;;0;;
6951;SDS011;3515;50.138;8.502;2022-10-31T07:04:26;4;;;0;;
6951;SDS011;3515;50.138;8.502;2022-10-31T07:06:51;4;;;0;;
6951;SDS011;3515;50.138;8.502;2022-10-31T07:09:17;4;;;0;;
6951;SDS011;3515;50.138;8.502;2022-10-31T07:11:42;4;;;0;;
6951;SDS011;3515;50.138;8.502;2022-10-31T07:14:07;4;;;0;;
6951;SDS011;3515;50.138;8.502;2022-10-31T07:16:33;4;;;0;;
6951;SDS011;3515;50.138;8.502;2022-10-31T07:18:58;5;;;0;;
6951;SDS011;3515;50.138;8.502;2022-10-31T07:21:23;5;;;0;;
6951;SDS011;3515;50.138;8.502;2022-10-31T07:23:48;5;;;0;;
6951;SDS011;3515;50.138;8.502;2022-10-31T07:26:13;5;;;0;;
6951;SDS011;3515;50.138;8.502;2022-10-31T07:28:39;6;;;0;;
6951;SDS011;3515;50.138;8.502;2022-10-31T07:31:04;6;;;0;;
6951;SDS011;3515;50.138;8.502;2022-10-31T07:33:29;6;;;0;;
6951;SDS011;3515;50.138;8.502;2022-10-31T07:35:55;7;;;0;;
6951;SDS011;3515;50.138;8.502;2022-10-31T07:38:20;6;;;0;;
6951;SDS011;3515;50.138;8.502;2022-10-31T07:40:48;6;;;0;;
6951;SDS011;3515;50.138;8.502;2022-10-31T07:43:11;6;;;0;;
6951;SDS011;3515;50.138;8.502;2022-10-31T07:45:36;7;;;0;;
6951;SDS011;3515;50.138;8.502;2022-10-31T07:48:01;6;;;0;;
6951;SDS011;3515;50.138;8.502;2022-10-31T07:50:27;5;;;0;;
6951;SDS011;3515;50.138;8.502;2022-10-31T07:52:59;5;;;0;;
6951;SDS011;3515;50.138;8.502;2022-10-31T07:55:20;5;;;0;;
6951;SDS011;3515;50.138;8.502;2022-10-31T07:57:55;5;;;0;;
6951;SDS011;3515;50.138;8.502;2022-10-31T08:00:15;5;;;0;;
6951;SDS011;3515;50.138;8.502;2022-10-31T08:02:40;6;;;0;;
6951;SDS011;3515;50.138;8.502;2022-10-31T08:05:05;5;;;0;;
6951;SDS011;3515;50.138;8.502;2022-10-31T08:07:35;5;;;0;;
6951;SDS011;3515;50.138;8.502;2022-10-31T08:09:56;5;;;0;;
6951;SDS011;3515;50.138;8.502;2022-10-31T08:12:21;4;;;0;;
6951;SDS011;3515;50.138;8.502;2022-10-31T08:14:46;5;;;0;;
6951;SDS011;3515;50.138;8.502;2022-10-31T08:17:11;5;;;0;;
6951;SDS011;3515;50.138;8.502;2022-10-31T08:19:37;6;;;0;;
6951;SDS011;3515;50.138;8.502;2022-10-31T08:22:02;6;;;0;;
6951;SDS011;3515;50.138;8.502;2022-10-31T08:24:27;7;;;0;;
6951;SDS011;3515;50.138;8.502;2022-10-31T08:26:52;7;;;0;;
6951;SDS011;3515;50.138;8.502;2022-10-31T08:29:18;7;;;0;;
6951;SDS011;3515;50.138;8.502;2022-10-31T08:31:43;7;;;0;;
6951;SDS011;3515;50.138;8.502;2022-10-31T08:34:08;6;;;0;;
6951;SDS011;3515;50.138;8.502;2022-10-31T08:36:33;6;;;0;;
6951;SDS011;3515;50.138;8.502;2022-10-31T08:38:59;7;;;0;;
6951;SDS011;3515;50.138;8.502;2022-10-31T08:41:24;6;;;0;;
6951;SDS011;3515;50.138;8.502;2022-10-31T08:43:49;6;;;0;;
6951;SDS011;3515;50.138;8.502;2022-10-31T08:46:14;5;;;0;;
6951;SDS011;3515;50.138;8.502;2022-10-31T08:48:40;5;;;0;;
6951;SDS011;3515;50.138;8.502;2022-10-31T08:51:05;6;;;0;;
6951;SDS011;3515;50.138;8.502;2022-10-31T08:53:30;6;;;0;;
6951;SDS011;3515;50.138;8.502;2022-10-31T08:55:59;5;;;0;;
6951;SDS011;3515;50.138;8.502;2022-10-31T08:58:25;4;;;0;;
6951;SDS011;3515;50.138;8.502;2022-10-31T09:00:50;4;;;0;;
6951;SDS011;3515;50.138;8.502;2022-10-31T09:03:16;4;;;0;;
6951;SDS011;3515;50.138;8.502;2022-10-31T09:05:40;5;;;0;;
6951;SDS011;3515;50.138;8.502;2022-10-31T09:08:06;5;;;0;;
6951;SDS011;3515;50.138;8.502;2022-10-31T09:10:31;5;;;0;;
6951;SDS011;3515;50.138;8.502;2022-10-31T09:12:56;5;;;0;;
6951;SDS011;3515;50.138;8.502;2022-10-31T09:15:21;5;;;0;;
6951;SDS011;3515;50.138;8.502;2022-10-31T09:17:46;5;;;0;;
6951;SDS011;3515;50.138;8.502;2022-10-31T09:20:12;5;;;0;;
6951;SDS011;3515;50.138;8.502;2022-10-31T09:22:37;5;;;0;;
6951;SDS011;3515;50.138;8.502;2022-10-31T09:25:02;4;;;0;;
6951;SDS011;3515;50.138;8.502;2022-10-31T09:27:28;4;;;0;;
6951;SDS011;3515;50.138;8.502;2022-10-31T09:29:53;4;;;0;;
6951;SDS011;3515;50.138;8.502;2022-10-31T09:32:18;4;;;0;;
6951;SDS011;3515;50.138;8.502;2022-10-31T09:34:43;4;;;0;;
6951;SDS011;3515;50.138;8.502;2022-10-31T09:37:09;3;;;0;;
6951;SDS011;3515;50.138;8.502;2022-10-31T09:39:34;4;;;0;;
6951;SDS011;3515;50.138;8.502;2022-10-31T09:42:02;4;;;0;;
6951;SDS011;3515;50.138;8.502;2022-10-31T09:44:26;4;;;0;;
6951;SDS011;3515;50.138;8.502;2022-10-31T09:46:51;5;;;0;;
6951;SDS011;3515;50.138;8.502;2022-10-31T09:49:24;4;;;0;;
6951;SDS011;3515;50.138;8.502;2022-10-31T09:51:41;5;;;0;;
6951;SDS011;3515;50.138;8.502;2022-10-31T09:54:06;5;;;0;;
6951;SDS011;3515;50.138;8.502;2022-10-31T09:56:31;5;;;0;;
6951;SDS011;3515;50.138;8.502;2022-10-31T09:58:57;5;;;0;;
6951;SDS011;3515;50.138;8.502;2022-10-31T10:01:28;5;;;0;;
6951;SDS011;3515;50.138;8.502;2022-10-31T10:03:46;4;;;0;;
6951;SDS011;3515;50.138;8.502;2022-10-31T10:06:13;4;;;0;;
6951;SDS011;3515;50.138;8.502;2022-10-31T10:08:37;4;;;0;;
6951;SDS011;3515;50.138;8.502;2022-10-31T10:11:05;4;;;0;;
6951;SDS011;3515;50.138;8.502;2022-10-31T10:13:34;4;;;0;;
6951;SDS011;3515;50.138;8.502;2022-10-31T10:15:57;4;;;0;;
6951;SDS011;3515;50.138;8.502;2022-10-31T10:18:21;3;;;0;;
6951;SDS011;3515;50.138;8.502;2022-10-31T10:20:43;3;;;0;;
6951;SDS011;3515;50.138;8.502;2022-10-31T10:23:12;3;;;0;;
6951;SDS011;3515;50.138;8.502;2022-10-31T10:25:34;3;;;0;;
6951;SDS011;3515;50.138;8.502;2022-10-31T10:28:03;3;;;0;;
6951;SDS011;3515;50.138;8.502;2022-10-31T10:30:28;3;;;0;;
6951;SDS011;3515;50.138;8.502;2022-10-31T10:32:50;5;;;0;;
6951;SDS011;3515;50.138;8.502;2022-10-31T10:35:22;5;;;0;;
6951;SDS011;3515;50.138;8.502;2022-10-31T10:37:44;5;;;0;;
6951;SDS011;3515;50.138;8.502;2022-10-31T10:40:12;6;;;0;;
6951;SDS011;3515;50.138;8.502;2022-10-31T10:42:35;6;;;0;;
6951;SDS011;3515;50.138;8.502;2022-10-31T10:45:04;6;;;0;;
6951;SDS011;3515;50.138;8.502;2022-10-31T10:47:26;6;;;0;;
6951;SDS011;3515;50.138;8.502;2022-10-31T10:49:51;6;;;0;;
6951;SDS011;3515;50.138;8.502;2022-10-31T10:52:25;4;;;0;;
6951;SDS011;3515;50.138;8.502;2022-10-31T10:54:45;5;;;0;;
6951;SDS011;3515;50.138;8.502;2022-10-31T10:57:12;4;;;0;;
6951;SDS011;3515;50.138;8.502;2022-10-31T10:59:32;4;;;0;;
6951;SDS011;3515;50.138;8.502;2022-10-31T11:01:57;4;;;0;;
6951;SDS011;3515;50.138;8.502;2022-10-31T11:04:26;4;;;0;;
6951;SDS011;3515;50.138;8.502;2022-10-31T11:06:56;4;;;0;;
6951;SDS011;3515;50.138;8.502;2022-10-31T11:09:14;3;;;0;;
6951;SDS011;3515;50.138;8.502;2022-10-31T11:11:38;3;;;0;;
6951;SDS011;3515;50.138;8.502;2022-10-31T11:14:05;3;;;0;;
6951;SDS011;3515;50.138;8.502;2022-10-31T11:16:31;3;;;0;;
6951;SDS011;3515;50.138;8.502;2022-10-31T11:18:54;4;;;0;;
6951;SDS011;3515;50.138;8.502;2022-10-31T11:21:20;4;;;0;;
6951;SDS011;3515;50.138;8.502;2022-10-31T11:23:45;5;;;0;;
6951;SDS011;3515;50.138;8.502;2022-10-31T11:26:18;4;;;0;;
6951;SDS011;3515;50.138;8.502;2022-10-31T11:28:35;5;;;0;;
6951;SDS011;3515;50.138;8.502;2022-10-31T11:31:04;5;;;0;;
6951;SDS011;3515;50.138;8.502;2022-10-31T11:33:27;4;;;0;;
6951;SDS011;3515;50.138;8.502;2022-10-31T11:35:51;5;;;0;;
6951;SDS011;3515;50.138;8.502;2022-10-31T11:38:17;5;;;0;;
6951;SDS011;3515;50.138;8.502;2022-10-31T11:40:51;4;;;0;;
6951;SDS011;3515;50.138;8.502;2022-10-31T11:43:12;4;;;0;;
6951;SDS011;3515;50.138;8.502;2022-10-31T11:45:32;4;;;0;;
6951;SDS011;3515;50.138;8.502;2022-10-31T11:47:57;4;;;0;;
6951;SDS011;3515;50.138;8.502;2022-10-31T11:50:23;4;;;0;;
6951;SDS011;3515;50.138;8.502;2022-10-31T11:52:47;4;;;0;;
6951;SDS011;3515;50.138;8.502;2022-10-31T11:55:14;4;;;0;;
6951;SDS011;3515;50.138;8.502;2022-10-31T11:57:42;5;;;0;;
6951;SDS011;3515;50.138;8.502;2022-10-31T12:00:04;5;;;0;;
6951;SDS011;3515;50.138;8.502;2022-10-31T12:02:29;5;;;0;;
6951;SDS011;3515;50.138;8.502;2022-10-31T12:04:57;5;;;0;;
6951;SDS011;3515;50.138;8.502;2022-10-31T12:07:19;4;;;0;;
6951;SDS011;3515;50.138;8.502;2022-10-31T12:09:44;4;;;0;;
6951;SDS011;3515;50.138;8.502;2022-10-31T12:12:24;5;;;0;;
6951;SDS011;3515;50.138;8.502;2022-10-31T12:14:37;5;;;0;;
6951;SDS011;3515;50.138;8.502;2022-10-31T12:17:01;4;;;0;;
6951;SDS011;3515;50.138;8.502;2022-10-31T12:19:32;5;;;0;;
6951;SDS011;3515;50.138;8.502;2022-10-31T12:21:58;4;;;0;;
6951;SDS011;3515;50.138;8.502;2022-10-31T12:24:21;4;;;0;;
6951;SDS011;3515;50.138;8.502;2022-10-31T12:26:42;4;;;0;;
6951;SDS011;3515;50.138;8.502;2022-10-31T12:29:10;5;;;0;;
6951;SDS011;3515;50.138;8.502;2022-10-31T12:31:38;5;;;0;;
6951;SDS011;3515;50.138;8.502;2022-10-31T12:34:00;5;;;0;;
6951;SDS011;3515;50.138;8.502;2022-10-31T12:36:32;5;;;0;;
6951;SDS011;3515;50.138;8.502;2022-10-31T12:38:54;4;;;0;;
6951;SDS011;3515;50.138;8.502;2022-10-31T12:41:19;5;;;0;;
6951;SDS011;3515;50.138;8.502;2022-10-31T12:43:42;5;;;0;;
6951;SDS011;3515;50.138;8.502;2022-10-31T12:46:03;4;;;0;;
6951;SDS011;3515;50.138;8.502;2022-10-31T12:48:50;4;;;0;;
6951;SDS011;3515;50.138;8.502;2022-10-31T12:50:59;4;;;0;;
6951;SDS011;3515;50.138;8.502;2022-10-31T12:53:31;4;;;0;;
6951;SDS011;3515;50.138;8.502;2022-10-31T12:55:55;4;;;0;;
6951;SDS011;3515;50.138;8.502;2022-10-31T12:58:17;4;;;0;;
6951;SDS011;3515;50.138;8.502;2022-10-31T13:00:40;4;;;0;;
6951;SDS011;3515;50.138;8.502;2022-10-31T13:03:08;4;;;0;;
6951;SDS011;3515;50.138;8.502;2022-10-31T13:05:30;5;;;0;;
6951;SDS011;3515;50.138;8.502;2022-10-31T13:07:56;5;;;0;;
6951;SDS011;3515;50.138;8.502;2022-10-31T13:10:21;5;;;0;;
6951;SDS011;3515;50.138;8.502;2022-10-31T13:12:51;4;;;0;;
6951;SDS011;3515;50.138;8.502;2022-10-31T13:15:16;6;;;0;;
6951;SDS011;3515;50.138;8.502;2022-10-31T13:17:42;5;;;0;;
6951;SDS011;3515;50.138;8.502;2022-10-31T13:20:12;5;;;0;;
6951;SDS011;3515;50.138;8.502;2022-10-31T13:22:31;5;;;0;;
6951;SDS011;3515;50.138;8.502;2022-10-31T13:24:57;5;;;0;;
6951;SDS011;3515;50.138;8.502;2022-10-31T13:27:21;5;;;0;;
6951;SDS011;3515;50.138;8.502;2022-10-31T13:29:48;5;;;0;;
6951;SDS011;3515;50.138;8.502;2022-10-31T13:32:11;4;;;0;;
6951;SDS011;3515;50.138;8.502;2022-10-31T13:34:37;3;;;0;;
6951;SDS011;3515;50.138;8.502;2022-10-31T13:37:05;4;;;0;;
6951;SDS011;3515;50.138;8.502;2022-10-31T13:39:32;4;;;0;;
6951;SDS011;3515;50.138;8.502;2022-10-31T13:41:53;4;;;0;;
6951;SDS011;3515;50.138;8.502;2022-10-31T13:44:19;3;;;0;;
6951;SDS011;3515;50.138;8.502;2022-10-31T13:46:43;4;;;0;;
6951;SDS011;3515;50.138;8.502;2022-10-31T13:49:24;4;;;0;;
6951;SDS011;3515;50.138;8.502;2022-10-31T13:51:38;4;;;0;;
6951;SDS011;3515;50.138;8.502;2022-10-31T13:54:06;4;;;0;;
6951;SDS011;3515;50.138;8.502;2022-10-31T13:56:29;4;;;0;;
6951;SDS011;3515;50.138;8.502;2022-10-31T13:59:04;4;;;0;;
6951;SDS011;3515;50.138;8.502;2022-10-31T14:01:19;4;;;0;;
6951;SDS011;3515;50.138;8.502;2022-10-31T14:03:45;5;;;0;;
6951;SDS011;3515;50.138;8.502;2022-10-31T14:06:09;5;;;0;;
6951;SDS011;3515;50.138;8.502;2022-10-31T14:08:36;5;;;0;;
6951;SDS011;3515;50.138;8.502;2022-10-31T14:11:00;5;;;0;;
6951;SDS011;3515;50.138;8.502;2022-10-31T14:13:26;5;;;0;;
6951;SDS011;3515;50.138;8.502;2022-10-31T14:15:52;5;;;0;;
6951;SDS011;3515;50.138;8.502;2022-10-31T14:18:19;5;;;0;;
6951;SDS011;3515;50.138;8.502;2022-10-31T14:20:41;4;;;0;;
6951;SDS011;3515;50.138;8.502;2022-10-31T14:23:10;4;;;0;;
6951;SDS011;3515;50.138;8.502;2022-10-31T14:25:33;4;;;0;;
6951;SDS011;3515;50.138;8.502;2022-10-31T14:27:57;3;;;0;;
6951;SDS011;3515;50.138;8.502;2022-10-31T14:30:23;3;;;0;;
6951;SDS011;3515;50.138;8.502;2022-10-31T14:32:49;3;;;0;;
6951;SDS011;3515;50.138;8.502;2022-10-31T14:35:14;3;;;0;;
6951;SDS011;3515;50.138;8.502;2022-10-31T14:37:47;3;;;0;;
6951;SDS011;3515;50.138;8.502;2022-10-31T14:40:16;3;;;0;;
6951;SDS011;3515;50.138;8.502;2022-10-31T14:42:32;4;;;0;;
6951;SDS011;3515;50.138;8.502;2022-10-31T14:45:01;4;;;0;;
6951;SDS011;3515;50.138;8.502;2022-10-31T14:47:23;4;;;0;;
6951;SDS011;3515;50.138;8.502;2022-10-31T14:49:56;4;;;0;;
6951;SDS011;3515;50.138;8.502;2022-10-31T14:52:11;5;;;0;;
6951;SDS011;3515;50.138;8.502;2022-10-31T14:54:35;5;;;0;;
6951;SDS011;3515;50.138;8.502;2022-10-31T14:57:01;5;;;0;;
6951;SDS011;3515;50.138;8.502;2022-10-31T14:59:27;5;;;0;;
6951;SDS011;3515;50.138;8.502;2022-10-31T15:01:53;4;;;0;;
6951;SDS011;3515;50.138;8.502;2022-10-31T15:04:17;4;;;0;;
6951;SDS011;3515;50.138;8.502;2022-10-31T15:06:41;4;;;0;;
6951;SDS011;3515;50.138;8.502;2022-10-31T15:11:36;4;;;0;;
6951;SDS011;3515;50.138;8.502;2022-10-31T15:13:57;4;;;0;;
6951;SDS011;3515;50.138;8.502;2022-10-31T15:16:22;5;;;0;;
6951;SDS011;3515;50.138;8.502;2022-10-31T15:18:48;6;;;0;;
6951;SDS011;3515;50.138;8.502;2022-10-31T15:21:13;6;;;0;;
6951;SDS011;3515;50.138;8.502;2022-10-31T15:23:38;6;;;0;;
6951;SDS011;3515;50.138;8.502;2022-10-31T15:26:03;6;;;0;;
6951;SDS011;3515;50.138;8.502;2022-10-31T15:28:28;6;;;0;;
6951;SDS011;3515;50.138;8.502;2022-10-31T15:30:54;6;;;0;;
6951;SDS011;3515;50.138;8.502;2022-10-31T15:33:19;5;;;0;;
6951;SDS011;3515;50.138;8.502;2022-10-31T15:35:53;4;;;0;;
6951;SDS011;3515;50.138;8.502;2022-10-31T15:38:09;3;;;0;;
6951;SDS011;3515;50.138;8.502;2022-10-31T15:40:34;3;;;0;;
6951;SDS011;3515;50.138;8.502;2022-10-31T15:43:01;3;;;0;;
6951;SDS011;3515;50.138;8.502;2022-10-31T15:45:25;4;;;0;;
6951;SDS011;3515;50.138;8.502;2022-10-31T15:47:53;5;;;0;;
6951;SDS011;3515;50.138;8.502;2022-10-31T15:50:20;5;;;0;;
6951;SDS011;3515;50.138;8.502;2022-10-31T15:52:45;6;;;0;;
6951;SDS011;3515;50.138;8.502;2022-10-31T15:55:15;7;;;0;;
6951;SDS011;3515;50.138;8.502;2022-10-31T15:57:38;7;;;0;;
6951;SDS011;3515;50.138;8.502;2022-10-31T16:00:01;6;;;0;;
6951;SDS011;3515;50.138;8.502;2022-10-31T16:02:26;6;;;0;;
6951;SDS011;3515;50.138;8.502;2022-10-31T16:04:53;7;;;0;;
6951;SDS011;3515;50.138;8.502;2022-10-31T16:07:17;6;;;0;;
6951;SDS011;3515;50.138;8.502;2022-10-31T16:09:49;5;;;0;;
6951;SDS011;3515;50.138;8.502;2022-10-31T16:12:11;4;;;0;;
6951;SDS011;3515;50.138;8.502;2022-10-31T16:14:32;4;;;0;;
6951;SDS011;3515;50.138;8.502;2022-10-31T16:16:58;4;;;0;;
6951;SDS011;3515;50.138;8.502;2022-10-31T16:19:23;5;;;0;;
6951;SDS011;3515;50.138;8.502;2022-10-31T16:21:48;4;;;0;;
6951;SDS011;3515;50.138;8.502;2022-10-31T16:24:16;4;;;0;;
6951;SDS011;3515;50.138;8.502;2022-10-31T16:26:38;4;;;0;;
6951;SDS011;3515;50.138;8.502;2022-10-31T16:29:04;5;;;0;;
6951;SDS011;3515;50.138;8.502;2022-10-31T16:31:30;5;;;0;;
6951;SDS011;3515;50.138;8.502;2022-10-31T16:34:04;5;;;0;;
6951;SDS011;3515;50.138;8.502;2022-10-31T16:38:45;5;;;0;;
6951;SDS011;3515;50.138;8.502;2022-10-31T16:41:11;6;;;0;;
6951;SDS011;3515;50.138;8.502;2022-10-31T16:43:36;5;;;0;;